createdAt,value
2018-06-16T00:00:03.211Z,82.4
2018-06-16T00:01:05.302Z,82.6
2018-06-16T00:02:07.325Z,82.8
2018-06-16T00:03:09.564Z,83.0
2018-06-16T00:04:11.634Z,82.8
2018-06-16T00:05:13.884Z,83.1
2018-06-16T00:06:15.560Z,83.6
2018-06-16T00:07:17.354Z,83.2
2018-06-16T00:08:19.548Z,83.4
2018-06-16T00:09:21.528Z,83.8
2018-06-16T00:10:23.614Z,83.7
2018-06-16T00:11:25.381Z,83.8
2018-06-16T00:12:27.909Z,84.0
2018-06-16T00:13:29.647Z,84.1
2018-06-16T00:14:31.998Z,83.3
2018-06-16T00:15:34.128Z,83.5
2018-06-16T00:16:36.241Z,83.1
2018-06-16T00:17:38.888Z,83.2
2018-06-16T00:18:40.610Z,83.3
2018-06-16T00:19:42.822Z,83.5
2018-06-16T00:20:45.029Z,83.6
2018-06-16T00:21:46.969Z,83.3
2018-06-16T00:22:49.070Z,83.4
2018-06-16T00:23:51.201Z,83.2
2018-06-16T00:24:53.427Z,83.3
2018-06-16T00:25:55.219Z,83.4
2018-06-16T00:26:57.165Z,83.1
2018-06-16T00:27:59.354Z,83.4
2018-06-16T00:29:01.389Z,83.0
2018-06-16T00:30:03.500Z,82.9
2018-06-16T00:31:05.540Z,83.5
2018-06-16T00:32:07.478Z,83.4
2018-06-16T00:33:09.265Z,83.1
2018-06-16T00:34:12.510Z,82.9
2018-06-16T00:35:14.214Z,82.4
2018-06-16T00:36:16.014Z,82.5
2018-06-16T00:37:18.287Z,83.0
2018-06-16T00:38:21.421Z,82.8
2018-06-16T00:39:23.620Z,82.1
2018-06-16T00:40:26.230Z,82.6
2018-06-16T00:41:28.225Z,82.4
2018-06-16T00:42:29.818Z,82.6
2018-06-16T00:43:31.619Z,82.6
2018-06-16T00:44:33.934Z,82.9
2018-06-16T00:45:36.120Z,83.0
2018-06-16T00:46:37.984Z,82.9
2018-06-16T00:47:40.029Z,83.6
2018-06-16T00:48:42.368Z,83.6
2018-06-16T00:49:44.316Z,83.3
2018-06-16T00:50:46.673Z,83.1
2018-06-16T00:51:48.657Z,83.6
2018-06-16T00:52:50.748Z,84.0
2018-06-16T00:53:52.932Z,84.7
2018-06-16T00:54:55.181Z,85.4
2018-06-16T00:55:57.209Z,85.1
2018-06-16T00:56:59.421Z,85.0
2018-06-16T00:58:01.571Z,84.9
2018-06-16T00:59:03.820Z,84.9
2018-06-16T01:00:05.969Z,85.4
2018-06-16T01:01:08.136Z,85.6
2018-06-16T01:02:10.113Z,85.6
2018-06-16T01:03:12.335Z,86.6
2018-06-16T01:04:14.083Z,86.4
2018-06-16T01:05:16.249Z,86.3
2018-06-16T01:06:18.012Z,86.2
2018-06-16T01:07:20.262Z,86.1
2018-06-16T01:08:22.329Z,86.1
2018-06-16T01:09:24.492Z,86.6
2018-06-16T01:10:26.661Z,86.6
2018-06-16T01:11:28.714Z,86.4
2018-06-16T01:12:30.427Z,86.5
2018-06-16T01:13:32.212Z,86.8
2018-06-16T01:14:35.122Z,86.5
2018-06-16T01:15:36.852Z,87.3
2018-06-16T01:16:38.593Z,87.2
2018-06-16T01:17:40.844Z,87.3
2018-06-16T01:18:42.967Z,87.3
2018-06-16T01:19:44.900Z,86.9
2018-06-16T01:20:46.987Z,87.4
2018-06-16T01:21:49.290Z,87.9
2018-06-16T01:22:51.306Z,88.3
2018-06-16T01:23:53.554Z,88.1
2018-06-16T01:24:55.730Z,87.8
2018-06-16T01:25:57.979Z,88.1
2018-06-16T01:26:59.737Z,87.7
2018-06-16T01:28:01.496Z,87.9
2018-06-16T01:29:03.507Z,87.7
2018-06-16T01:30:05.478Z,87.3
2018-06-16T01:31:07.671Z,87.8
2018-06-16T01:32:09.956Z,88.2
2018-06-16T01:33:12.075Z,87.7
2018-06-16T01:34:14.108Z,87.4
2018-06-16T01:35:16.354Z,87.9
2018-06-16T01:36:18.156Z,87.3
2018-06-16T01:37:19.911Z,87.9
2018-06-16T01:38:21.716Z,87.7
2018-06-16T01:39:23.502Z,87.7
2018-06-16T01:40:25.502Z,87.2
2018-06-16T01:41:27.240Z,87.9
2018-06-16T01:42:29.484Z,87.6
2018-06-16T01:43:31.702Z,87.8
2018-06-16T01:44:33.449Z,88.0
2018-06-16T01:45:35.482Z,87.7
2018-06-16T01:46:37.648Z,88.7
2018-06-16T01:47:39.666Z,88.4
2018-06-16T01:48:42.104Z,88.3
2018-06-16T01:49:44.202Z,88.1
2018-06-16T01:50:45.994Z,88.3
2018-06-16T01:51:47.717Z,88.4
2018-06-16T01:52:49.492Z,88.4
2018-06-16T01:53:51.521Z,88.8
2018-06-16T01:54:53.671Z,89.0
2018-06-16T01:55:55.730Z,89.1
2018-06-16T01:56:57.491Z,89.1
2018-06-16T01:57:59.252Z,89.4
2018-06-16T01:59:01.303Z,89.4
2018-06-16T02:00:03.729Z,89.4
2018-06-16T02:01:05.446Z,89.4
2018-06-16T02:02:07.917Z,89.4
2018-06-16T02:03:10.589Z,89.9
2018-06-16T02:04:13.937Z,89.7
2018-06-16T02:05:15.956Z,89.9
2018-06-16T02:06:17.965Z,89.6
2018-06-16T02:07:19.682Z,90.7
2018-06-16T02:08:22.001Z,90.5
2018-06-16T02:09:24.296Z,90.1
2018-06-16T02:10:26.442Z,90.1
2018-06-16T02:11:28.482Z,90.5
2018-06-16T02:12:31.769Z,90.5
2018-06-16T02:13:33.426Z,90.5
2018-06-16T02:14:36.018Z,90.4
2018-06-16T02:15:38.482Z,90.2
2018-06-16T02:16:40.767Z,90.9
2018-06-16T02:17:43.034Z,90.1
2018-06-16T02:18:45.144Z,90.5
2018-06-16T02:19:47.316Z,90.1
2018-06-16T02:20:49.371Z,90.5
2018-06-16T02:21:51.331Z,90.5
2018-06-16T02:22:53.461Z,90.5
2018-06-16T02:23:55.521Z,90.4
2018-06-16T02:24:57.798Z,90.2
2018-06-16T02:25:59.721Z,90.1
2018-06-16T02:27:01.571Z,90.5
2018-06-16T02:28:03.669Z,90.5
2018-06-16T02:29:06.084Z,91.1
2018-06-16T02:30:07.951Z,90.4
2018-06-16T02:31:10.070Z,90.6
2018-06-16T02:32:12.235Z,90.2
2018-06-16T02:33:14.141Z,90.3
2018-06-16T02:34:16.190Z,90.4
2018-06-16T02:35:17.965Z,91.1
2018-06-16T02:36:19.741Z,91.0
2018-06-16T02:37:21.417Z,91.1
2018-06-16T02:38:24.265Z,90.4
2018-06-16T02:39:26.247Z,90.4
2018-06-16T02:40:27.974Z,90.6
2018-06-16T02:41:30.315Z,90.3
2018-06-16T02:42:32.801Z,90.7
2018-06-16T02:43:34.888Z,90.6
2018-06-16T02:44:36.630Z,90.6
2018-06-16T02:45:38.386Z,90.1
2018-06-16T02:46:40.899Z,90.4
2018-06-16T02:47:42.871Z,90.3
2018-06-16T02:48:44.915Z,90.6
2018-06-16T02:49:47.098Z,90.7
2018-06-16T02:50:49.216Z,90.0
2018-06-16T02:51:51.517Z,90.6
2018-06-16T02:52:53.814Z,90.0
2018-06-16T02:53:55.801Z,90.0
2018-06-16T02:54:57.550Z,90.6
2018-06-16T02:55:59.885Z,89.9
2018-06-16T02:57:01.952Z,89.9
2018-06-16T02:58:04.072Z,90.1
2018-06-16T02:59:06.256Z,89.9
2018-06-16T03:00:08.528Z,89.9
2018-06-16T03:01:10.762Z,90.4
2018-06-16T03:02:12.911Z,90.0
2018-06-16T03:03:15.075Z,90.6
2018-06-16T03:04:17.179Z,90.6
2018-06-16T03:05:18.892Z,90.2
2018-06-16T03:06:21.025Z,91.0
2018-06-16T03:07:22.820Z,91.1
2018-06-16T03:08:24.566Z,90.5
2018-06-16T03:09:26.632Z,90.6
2018-06-16T03:10:28.412Z,90.6
2018-06-16T03:11:30.516Z,90.2
2018-06-16T03:12:32.699Z,90.3
2018-06-16T03:13:34.670Z,90.4
2018-06-16T03:14:37.151Z,90.6
2018-06-16T03:15:39.192Z,91.0
2018-06-16T03:16:40.945Z,90.7
2018-06-16T03:17:42.706Z,91.4
2018-06-16T03:18:44.450Z,90.9
2018-06-16T03:19:46.181Z,91.5
2018-06-16T03:20:48.512Z,91.3
2018-06-16T03:21:50.535Z,91.3
2018-06-16T03:22:52.340Z,91.9
2018-06-16T03:23:54.535Z,92.1
2018-06-16T03:24:56.749Z,91.3
2018-06-16T03:25:58.797Z,92.0
2018-06-16T03:27:00.571Z,91.9
2018-06-16T03:28:02.782Z,91.7
2018-06-16T03:29:04.615Z,91.9
2018-06-16T03:30:06.675Z,91.8
2018-06-16T03:31:08.815Z,92.0
2018-06-16T03:32:10.642Z,91.8
2018-06-16T03:33:12.628Z,91.8
2018-06-16T03:34:14.351Z,91.9
2018-06-16T03:35:16.068Z,92.2
2018-06-16T03:36:18.029Z,91.9
2018-06-16T03:37:20.277Z,91.9
2018-06-16T03:38:22.036Z,92.0
2018-06-16T03:39:25.274Z,91.8
2018-06-16T03:40:27.325Z,91.9
2018-06-16T03:41:29.473Z,91.8
2018-06-16T03:42:31.134Z,92.5
2018-06-16T03:43:33.465Z,92.4
2018-06-16T03:44:35.450Z,92.4
2018-06-16T03:45:37.265Z,92.4
2018-06-16T03:46:39.544Z,92.4
2018-06-16T03:47:41.500Z,91.9
2018-06-16T03:48:43.226Z,92.0
2018-06-16T03:49:45.546Z,92.1
2018-06-16T03:50:47.393Z,92.2
2018-06-16T03:51:49.549Z,92.3
2018-06-16T03:52:51.242Z,92.4
2018-06-16T03:53:53.193Z,92.8
2018-06-16T03:54:55.119Z,92.4
2018-06-16T03:55:57.300Z,92.0
2018-06-16T03:56:59.425Z,91.7
2018-06-16T03:58:01.593Z,92.0
2018-06-16T03:59:03.392Z,92.0
2018-06-16T04:00:05.441Z,92.0
2018-06-16T04:01:07.260Z,91.9
2018-06-16T04:02:09.264Z,91.9
2018-06-16T04:03:11.476Z,91.9
2018-06-16T04:04:13.661Z,91.9
2018-06-16T04:05:15.558Z,91.9
2018-06-16T04:06:17.315Z,91.9
2018-06-16T04:07:19.641Z,91.7
2018-06-16T04:08:21.589Z,91.7
2018-06-16T04:09:23.692Z,91.9
2018-06-16T04:10:26.623Z,91.3
2018-06-16T04:11:28.682Z,91.6
2018-06-16T04:12:30.696Z,91.2
2018-06-16T04:13:32.529Z,91.4
2018-06-16T04:14:34.700Z,91.7
2018-06-16T04:15:36.644Z,91.5
2018-06-16T04:16:38.586Z,91.1
2018-06-16T04:17:40.771Z,91.1
2018-06-16T04:18:42.416Z,91.2
2018-06-16T04:19:44.642Z,91.3
2018-06-16T04:20:46.629Z,90.9
2018-06-16T04:21:48.434Z,91.2
2018-06-16T04:22:50.883Z,91.0
2018-06-16T04:23:52.916Z,91.0
2018-06-16T04:24:55.174Z,90.6
2018-06-16T04:25:57.460Z,90.4
2018-06-16T04:26:59.907Z,90.4
2018-06-16T04:28:01.670Z,90.6
2018-06-16T04:29:03.438Z,90.6
2018-06-16T04:30:05.628Z,90.1
2018-06-16T04:31:07.428Z,90.0
2018-06-16T04:32:09.137Z,90.4
2018-06-16T04:33:11.522Z,90.2
2018-06-16T04:34:13.612Z,90.0
2018-06-16T04:35:15.761Z,90.0
2018-06-16T04:36:17.957Z,89.9
2018-06-16T04:37:19.721Z,90.2
2018-06-16T04:38:21.568Z,90.0
2018-06-16T04:39:23.909Z,90.3
2018-06-16T04:40:25.875Z,89.7
2018-06-16T04:41:27.638Z,89.7
2018-06-16T04:42:29.921Z,89.4
2018-06-16T04:43:32.005Z,89.6
2018-06-16T04:44:33.742Z,89.5
2018-06-16T04:45:35.858Z,89.1
2018-06-16T04:46:37.444Z,88.7
2018-06-16T04:47:39.687Z,89.1
2018-06-16T04:48:41.372Z,88.3
2018-06-16T04:49:43.680Z,88.4
2018-06-16T04:50:45.359Z,88.1
2018-06-16T04:51:47.507Z,88.7
2018-06-16T04:52:49.746Z,87.8
2018-06-16T04:53:51.680Z,87.8
2018-06-16T04:54:53.884Z,88.0
2018-06-16T04:55:56.127Z,88.9
2018-06-16T04:56:58.310Z,88.0
2018-06-16T04:58:00.743Z,88.3
2018-06-16T04:59:02.942Z,88.0
2018-06-16T05:00:04.976Z,88.1
2018-06-16T05:01:06.729Z,87.7
2018-06-16T05:02:09.095Z,88.0
2018-06-16T05:03:11.063Z,88.0
2018-06-16T05:04:13.271Z,87.1
2018-06-16T05:05:15.249Z,87.5
2018-06-16T05:06:17.615Z,86.6
2018-06-16T05:07:19.846Z,86.5
2018-06-16T05:08:21.569Z,86.5
2018-06-16T05:09:23.573Z,86.5
2018-06-16T05:10:25.722Z,86.4
2018-06-16T05:11:28.062Z,86.1
2018-06-16T05:12:30.212Z,85.7
2018-06-16T05:13:32.233Z,86.2
2018-06-16T05:14:34.436Z,85.3
2018-06-16T05:15:36.502Z,85.3
2018-06-16T05:16:38.701Z,85.4
2018-06-16T05:17:40.377Z,84.0
2018-06-16T05:18:42.091Z,83.5
2018-06-16T05:19:44.284Z,83.1
2018-06-16T05:20:46.510Z,82.4
2018-06-16T05:21:48.552Z,82.3
2018-06-16T05:22:50.547Z,82.0
2018-06-16T05:23:52.616Z,81.9
2018-06-16T05:24:54.840Z,82.0
2018-06-16T05:25:57.148Z,81.8
2018-06-16T05:26:59.161Z,82.3
2018-06-16T05:28:00.962Z,82.3
2018-06-16T05:29:02.706Z,82.6
2018-06-16T05:30:04.597Z,82.6
2018-06-16T05:31:06.295Z,83.0
2018-06-16T05:32:08.125Z,82.7
2018-06-16T05:33:09.927Z,82.9
2018-06-16T05:34:11.659Z,82.4
2018-06-16T05:35:13.385Z,82.6
2018-06-16T05:36:15.146Z,82.8
2018-06-16T05:37:16.877Z,82.0
2018-06-16T05:38:18.653Z,81.7
2018-06-16T05:39:20.333Z,81.1
2018-06-16T05:40:22.111Z,80.9
2018-06-16T05:41:23.814Z,80.8
2018-06-16T05:42:25.560Z,81.0
2018-06-16T05:43:27.396Z,80.2
2018-06-16T05:44:29.111Z,80.2
2018-06-16T05:45:30.822Z,81.3
2018-06-16T05:46:32.668Z,80.9
2018-06-16T05:47:34.447Z,80.9
2018-06-16T05:48:36.213Z,80.6
2018-06-16T05:49:37.961Z,81.0
2018-06-16T05:50:39.683Z,80.3
2018-06-16T05:51:41.483Z,80.3
2018-06-16T05:52:43.221Z,79.7
2018-06-16T05:53:45.023Z,80.4
2018-06-16T05:54:46.786Z,80.5
2018-06-16T05:55:48.528Z,80.5
2018-06-16T05:56:50.249Z,80.9
2018-06-16T05:57:52.033Z,80.9
2018-06-16T05:58:53.748Z,81.5
2018-06-16T05:59:55.611Z,81.6
2018-06-16T06:00:57.383Z,81.9
2018-06-16T06:01:59.077Z,81.4
2018-06-16T06:03:00.864Z,81.2
2018-06-16T06:04:02.731Z,80.7
2018-06-16T06:05:04.445Z,80.5
2018-06-16T06:06:06.223Z,79.7
2018-06-16T06:07:07.946Z,79.6
2018-06-16T06:08:09.774Z,78.7
2018-06-16T06:09:11.576Z,78.1
2018-06-16T06:10:13.343Z,78.3
2018-06-16T06:11:15.105Z,77.5
2018-06-16T06:12:16.911Z,76.7
2018-06-16T06:13:18.716Z,76.7
2018-06-16T06:14:20.517Z,76.0
2018-06-16T06:15:22.264Z,75.3
2018-06-16T06:16:24.005Z,73.0
2018-06-16T06:17:25.828Z,73.2
2018-06-16T06:18:27.554Z,73.4
2018-06-16T06:19:29.273Z,73.4
2018-06-16T06:20:30.938Z,72.9
2018-06-16T06:21:32.757Z,72.0
2018-06-16T06:22:34.534Z,70.4
2018-06-16T06:23:36.383Z,71.5
2018-06-16T06:24:38.241Z,71.3
2018-06-16T06:25:40.001Z,72.9
2018-06-16T06:26:41.798Z,71.3
2018-06-16T06:27:43.572Z,72.7
2018-06-16T06:28:45.362Z,72.0
2018-06-16T06:29:47.051Z,71.4
2018-06-16T06:30:48.766Z,70.8
2018-06-16T06:31:50.503Z,70.1
2018-06-16T06:32:52.275Z,71.8
2018-06-16T06:33:54.004Z,71.7
2018-06-16T06:34:55.772Z,71.1
2018-06-16T06:35:57.489Z,70.9
2018-06-16T06:36:59.385Z,69.6
2018-06-16T06:38:01.158Z,69.5
2018-06-16T06:39:02.954Z,68.0
2018-06-16T06:40:04.759Z,68.1
2018-06-16T06:41:06.508Z,67.5
2018-06-16T06:42:08.287Z,68.0
2018-06-16T06:43:10.074Z,67.0
2018-06-16T06:44:11.958Z,66.9
2018-06-16T06:45:13.723Z,66.2
2018-06-16T06:46:15.579Z,66.6
2018-06-16T06:47:17.399Z,63.8
2018-06-16T06:48:19.387Z,65.3
2018-06-16T06:49:21.151Z,64.7
2018-06-16T06:50:23.110Z,63.3
2018-06-16T06:51:24.948Z,61.7
2018-06-16T06:52:26.781Z,61.7
2018-06-16T06:53:28.625Z,62.0
2018-06-16T06:54:30.486Z,62.7
2018-06-16T06:55:32.221Z,61.2
2018-06-16T06:56:33.989Z,60.1
2018-06-16T06:57:35.710Z,60.9
2018-06-16T06:58:37.529Z,60.2
2018-06-16T06:59:39.278Z,59.6
2018-06-16T07:00:41.029Z,60.4
2018-06-16T07:01:42.865Z,60.0
2018-06-16T07:02:44.746Z,57.1
2018-06-16T07:03:46.577Z,56.9
2018-06-16T07:04:48.384Z,57.7
2018-06-16T07:05:50.168Z,58.5
2018-06-16T07:06:51.916Z,59.0
2018-06-16T07:07:53.690Z,59.3
2018-06-16T07:08:55.548Z,59.2
2018-06-16T07:09:57.344Z,59.7
2018-06-16T07:10:59.244Z,60.6
2018-06-16T07:12:00.973Z,58.5
2018-06-16T07:13:02.729Z,57.8
2018-06-16T07:14:05.289Z,58.9
2018-06-16T07:15:07.207Z,58.8
2018-06-16T07:16:08.952Z,59.1
2018-06-16T07:17:10.843Z,59.6
2018-06-16T07:18:12.619Z,59.6
2018-06-16T07:19:14.419Z,59.7
2018-06-16T07:20:16.166Z,61.0
2018-06-16T07:21:17.837Z,60.3
2018-06-16T07:22:19.663Z,60.1
2018-06-16T07:23:21.466Z,59.9
2018-06-16T07:24:23.286Z,61.1
2018-06-16T07:25:25.057Z,60.7
2018-06-16T07:26:26.817Z,62.1
2018-06-16T07:27:28.622Z,62.1
2018-06-16T07:28:30.406Z,61.8
2018-06-16T07:29:32.156Z,61.4
2018-06-16T07:30:33.921Z,61.3
2018-06-16T07:31:35.692Z,62.1
2018-06-16T07:32:37.467Z,63.0
2018-06-16T07:33:39.164Z,62.7
2018-06-16T07:34:41.008Z,61.1
2018-06-16T07:35:42.849Z,60.4
2018-06-16T07:36:44.630Z,59.8
2018-06-16T07:37:46.455Z,61.6
2018-06-16T07:38:48.224Z,60.4
2018-06-16T07:39:50.315Z,59.3
2018-06-16T07:40:52.870Z,59.2
2018-06-16T07:41:54.627Z,57.8
2018-06-16T07:42:56.263Z,56.5
2018-06-16T07:43:58.051Z,57.1
2018-06-16T07:44:59.825Z,57.9
2018-06-16T07:46:01.595Z,57.2
2018-06-16T07:47:03.381Z,56.8
2018-06-16T07:48:06.138Z,58.0
2018-06-16T07:49:07.899Z,56.6
2018-06-16T07:50:09.771Z,55.8
2018-06-16T07:51:11.595Z,55.7
2018-06-16T07:52:13.364Z,55.9
2018-06-16T07:53:15.301Z,56.5
2018-06-16T07:54:17.022Z,54.9
2018-06-16T07:55:18.752Z,55.1
2018-06-16T07:56:20.546Z,55.9
2018-06-16T07:57:22.401Z,54.1
2018-06-16T07:58:24.319Z,53.9
2018-06-16T07:59:26.140Z,53.7
2018-06-16T08:00:27.854Z,52.8
2018-06-16T08:01:29.694Z,50.5
2018-06-16T08:02:31.524Z,51.3
2018-06-16T08:03:33.309Z,51.7
2018-06-16T08:04:35.201Z,49.0
2018-06-16T08:05:37.120Z,49.7
2018-06-16T08:06:38.907Z,50.9
2018-06-16T08:07:40.595Z,48.7
2018-06-16T08:08:42.336Z,47.5
2018-06-16T08:09:44.202Z,46.8
2018-06-16T08:10:46.045Z,47.2
2018-06-16T08:11:47.924Z,47.3
2018-06-16T08:12:49.700Z,44.4
2018-06-16T08:13:51.639Z,44.9
2018-06-16T08:14:53.283Z,43.8
2018-06-16T08:15:55.112Z,44.6
2018-06-16T08:16:56.875Z,45.4
2018-06-16T08:17:58.781Z,45.4
2018-06-16T08:19:00.703Z,44.5
2018-06-16T08:20:02.509Z,45.2
2018-06-16T08:21:04.259Z,42.3
2018-06-16T08:22:06.067Z,44.7
2018-06-16T08:23:07.835Z,46.3
2018-06-16T08:24:09.791Z,44.7
2018-06-16T08:25:11.659Z,42.8
2018-06-16T08:26:13.314Z,43.1
2018-06-16T08:27:15.081Z,44.8
2018-06-16T08:28:16.923Z,46.7
2018-06-16T08:29:18.825Z,45.6
2018-06-16T08:30:20.581Z,47.1
2018-06-16T08:31:22.332Z,46.2
2018-06-16T08:32:24.428Z,46.1
2018-06-16T08:33:26.198Z,46.6
2018-06-16T08:34:27.945Z,47.5
2018-06-16T08:35:29.685Z,45.9
2018-06-16T08:36:31.581Z,45.3
2018-06-16T08:37:33.265Z,45.7
2018-06-16T08:38:35.125Z,46.2
2018-06-16T08:39:36.854Z,45.8
2018-06-16T08:40:38.737Z,44.4
2018-06-16T08:41:40.504Z,44.0
2018-06-16T08:42:42.449Z,44.4
2018-06-16T08:43:44.382Z,46.4
2018-06-16T08:44:46.137Z,46.6
2018-06-16T08:45:47.922Z,47.7
2018-06-16T08:46:49.622Z,49.2
2018-06-16T08:47:51.458Z,47.1
2018-06-16T08:48:53.654Z,43.7
2018-06-16T08:49:55.343Z,45.0
2018-06-16T08:50:56.992Z,45.5
2018-06-16T08:51:58.762Z,46.1
2018-06-16T08:53:00.511Z,47.7
2018-06-16T08:54:02.259Z,47.5
2018-06-16T08:55:04.050Z,47.2
2018-06-16T08:56:05.754Z,47.2
2018-06-16T08:57:07.558Z,49.0
2018-06-16T08:58:09.388Z,47.1
2018-06-16T08:59:11.128Z,47.1
2018-06-16T09:00:12.830Z,48.4
2018-06-16T09:01:14.577Z,46.6
2018-06-16T09:02:16.331Z,47.1
2018-06-16T09:03:18.229Z,45.2
2018-06-16T09:04:19.945Z,44.9
2018-06-16T09:05:21.653Z,43.5
2018-06-16T09:06:23.744Z,44.5
2018-06-16T09:07:25.471Z,42.4
2018-06-16T09:08:27.206Z,42.5
2018-06-16T09:09:29.109Z,41.0
2018-06-16T09:10:31.034Z,41.0
2018-06-16T09:11:32.763Z,40.9
2018-06-16T09:12:34.470Z,40.8
2018-06-16T09:13:36.595Z,41.0
2018-06-16T09:14:38.400Z,41.3
2018-06-16T09:15:40.261Z,41.3
2018-06-16T09:16:42.037Z,42.6
2018-06-16T09:17:43.862Z,41.9
2018-06-16T09:18:45.779Z,39.9
2018-06-16T09:19:47.650Z,41.7
2018-06-16T09:20:49.540Z,41.9
2018-06-16T09:21:51.290Z,41.8
2018-06-16T09:22:53.052Z,43.0
2018-06-16T09:23:54.952Z,42.3
2018-06-16T09:24:56.719Z,43.0
2018-06-16T09:25:58.439Z,43.0
2018-06-16T09:27:00.139Z,40.8
2018-06-16T09:28:01.999Z,42.1
2018-06-16T09:29:03.731Z,42.5
2018-06-16T09:30:05.428Z,42.7
2018-06-16T09:31:07.174Z,42.6
2018-06-16T09:32:09.077Z,44.7
2018-06-16T09:33:10.919Z,43.6
2018-06-16T09:34:12.695Z,43.4
2018-06-16T09:35:14.425Z,41.2
2018-06-16T09:36:16.157Z,41.5
2018-06-16T09:37:17.993Z,40.9
2018-06-16T09:38:19.586Z,39.5
2018-06-16T09:39:21.377Z,38.7
2018-06-16T09:40:23.148Z,39.0
2018-06-16T09:41:24.885Z,38.2
2018-06-16T09:42:26.657Z,39.0
2018-06-16T09:43:28.312Z,37.6
2018-06-16T09:44:30.059Z,38.9
2018-06-16T09:45:31.761Z,37.8
2018-06-16T09:46:33.844Z,38.1
2018-06-16T09:47:35.541Z,39.5
2018-06-16T09:48:37.275Z,40.4
2018-06-16T09:49:39.466Z,40.3
2018-06-16T09:50:41.143Z,40.3
2018-06-16T09:51:43.092Z,40.2
2018-06-16T09:52:44.738Z,40.5
2018-06-16T09:53:46.622Z,39.8
2018-06-16T09:54:48.330Z,38.7
2018-06-16T09:55:50.103Z,39.6
2018-06-16T09:56:52.125Z,41.6
2018-06-16T09:57:53.934Z,40.7
2018-06-16T09:58:55.773Z,41.4
2018-06-16T09:59:57.883Z,42.0
2018-06-16T10:00:59.632Z,38.7
2018-06-16T10:02:01.388Z,39.0
2018-06-16T10:03:03.112Z,38.6
2018-06-16T10:04:04.974Z,36.7
2018-06-16T10:05:07.046Z,37.6
2018-06-16T10:06:08.860Z,39.1
2018-06-16T10:07:11.185Z,39.3
2018-06-16T10:08:12.899Z,39.6
2018-06-16T10:09:14.652Z,38.0
2018-06-16T10:10:16.594Z,38.5
2018-06-16T10:11:18.733Z,37.1
2018-06-16T10:12:20.461Z,37.9
2018-06-16T10:13:22.390Z,37.2
2018-06-16T10:14:24.238Z,37.2
2018-06-16T10:15:26.269Z,36.8
2018-06-16T10:16:27.973Z,38.2
2018-06-16T10:17:29.731Z,36.7
2018-06-16T10:18:32.029Z,36.7
2018-06-16T10:19:34.025Z,37.6
2018-06-16T10:20:36.076Z,36.8
2018-06-16T10:21:38.112Z,36.5
2018-06-16T10:22:39.826Z,36.6
2018-06-16T10:23:41.624Z,37.3
2018-06-16T10:24:43.339Z,39.4
2018-06-16T10:25:45.128Z,38.5
2018-06-16T10:26:46.853Z,38.0
2018-06-16T10:27:49.297Z,38.1
2018-06-16T10:28:51.488Z,38.3
2018-06-16T10:29:53.140Z,39.4
2018-06-16T10:30:54.898Z,39.9
2018-06-16T10:31:57.017Z,40.3
2018-06-16T10:32:58.734Z,42.5
2018-06-16T10:34:00.444Z,41.5
2018-06-16T10:35:02.242Z,42.2
2018-06-16T10:36:03.936Z,42.0
2018-06-16T10:37:05.696Z,41.4
2018-06-16T10:38:07.442Z,40.5
2018-06-16T10:39:09.142Z,38.4
2018-06-16T10:40:10.770Z,40.6
2018-06-16T10:41:12.455Z,42.1
2018-06-16T10:42:14.532Z,42.3
2018-06-16T10:43:16.165Z,41.9
2018-06-16T10:44:17.900Z,42.1
2018-06-16T10:45:19.907Z,43.4
2018-06-16T10:46:21.672Z,41.1
2018-06-16T10:47:23.392Z,41.4
2018-06-16T10:48:25.353Z,40.8
2018-06-16T10:49:27.262Z,41.3
2018-06-16T10:50:28.991Z,40.2
2018-06-16T10:51:30.711Z,40.7
2018-06-16T10:52:32.460Z,40.4
2018-06-16T10:53:34.435Z,40.2
2018-06-16T10:54:36.176Z,39.2
2018-06-16T10:55:38.236Z,38.9
2018-06-16T10:56:39.991Z,43.0
2018-06-16T10:57:41.621Z,42.8
2018-06-16T10:58:43.561Z,40.7
2018-06-16T10:59:45.295Z,38.9
2018-06-16T11:00:46.940Z,40.0
2018-06-16T11:01:48.797Z,40.4
2018-06-16T11:02:50.757Z,41.0
2018-06-16T11:03:52.785Z,39.8
2018-06-16T11:04:54.470Z,40.4
2018-06-16T11:05:56.185Z,38.7
2018-06-16T11:06:57.927Z,37.9
2018-06-16T11:07:59.675Z,38.7
2018-06-16T11:09:01.845Z,38.5
2018-06-16T11:10:03.439Z,37.8
2018-06-16T11:11:05.174Z,37.9
2018-06-16T11:12:06.980Z,37.9
2018-06-16T11:13:08.734Z,37.9
2018-06-16T11:14:10.454Z,38.1
2018-06-16T11:15:12.469Z,38.6
2018-06-16T11:16:14.365Z,39.3
2018-06-16T11:17:16.359Z,36.6
2018-06-16T11:18:18.097Z,36.7
2018-06-16T11:19:19.737Z,36.6
2018-06-16T11:20:21.623Z,35.8
2018-06-16T11:21:23.810Z,35.4
2018-06-16T11:22:25.514Z,36.7
2018-06-16T11:23:27.388Z,37.5
2018-06-16T11:24:29.344Z,38.3
2018-06-16T11:25:31.125Z,37.9
2018-06-16T11:26:32.832Z,37.5
2018-06-16T11:27:34.603Z,37.6
2018-06-16T11:28:36.416Z,37.4
2018-06-16T11:29:38.085Z,35.9
2018-06-16T11:30:39.896Z,36.3
2018-06-16T11:31:41.547Z,35.5
2018-06-16T11:32:43.409Z,36.0
2018-06-16T11:33:45.509Z,36.7
2018-06-16T11:34:47.607Z,35.7
2018-06-16T11:35:49.370Z,35.8
2018-06-16T11:36:51.570Z,35.7
2018-06-16T11:37:53.997Z,35.9
2018-06-16T11:38:56.065Z,36.5
2018-06-16T11:39:57.846Z,35.9
2018-06-16T11:40:59.509Z,35.8
2018-06-16T11:42:01.154Z,36.0
2018-06-16T11:43:02.885Z,35.6
2018-06-16T11:44:04.721Z,35.7
2018-06-16T11:45:06.478Z,36.2
2018-06-16T11:46:08.241Z,36.0
2018-06-16T11:47:09.830Z,37.5
2018-06-16T11:48:11.567Z,35.3
2018-06-16T11:49:13.269Z,33.9
2018-06-16T11:50:14.982Z,33.5
2018-06-16T11:51:16.658Z,35.3
2018-06-16T11:52:18.671Z,35.0
2018-06-16T11:53:20.654Z,36.7
2018-06-16T11:54:22.447Z,34.3
2018-06-16T11:55:24.148Z,34.2
2018-06-16T11:56:26.207Z,34.0
2018-06-16T11:57:28.197Z,33.1
2018-06-16T11:58:30.390Z,33.5
2018-06-16T11:59:32.371Z,33.9
2018-06-16T12:00:34.107Z,34.2
2018-06-16T12:01:35.843Z,34.0
2018-06-16T12:02:37.522Z,35.3
2018-06-16T12:03:39.495Z,35.0
2018-06-16T12:04:41.432Z,35.7
2018-06-16T12:05:43.205Z,35.0
2018-06-16T12:06:44.915Z,37.1
2018-06-16T12:07:46.841Z,33.8
2018-06-16T12:08:48.786Z,33.7
2018-06-16T12:09:50.727Z,33.8
2018-06-16T12:10:52.508Z,34.1
2018-06-16T12:11:54.323Z,34.3
2018-06-16T12:12:55.961Z,33.7
2018-06-16T12:13:57.764Z,32.4
2018-06-16T12:14:59.569Z,32.9
2018-06-16T12:16:01.301Z,34.3
2018-06-16T12:17:03.187Z,33.0
2018-06-16T12:18:04.845Z,33.5
2018-06-16T12:19:07.100Z,33.7
2018-06-16T12:20:09.173Z,34.2
2018-06-16T12:21:10.865Z,35.5
2018-06-16T12:22:12.568Z,36.8
2018-06-16T12:23:14.311Z,37.9
2018-06-16T12:24:16.053Z,37.9
2018-06-16T12:25:17.811Z,36.8
2018-06-16T12:26:19.503Z,37.1
2018-06-16T12:27:21.173Z,37.8
2018-06-16T12:28:23.012Z,38.0
2018-06-16T12:29:24.739Z,38.0
2018-06-16T12:30:26.560Z,36.7
2018-06-16T12:31:28.248Z,34.9
2018-06-16T12:32:30.017Z,34.8
2018-06-16T12:33:31.750Z,35.6
2018-06-16T12:34:33.484Z,36.4
2018-06-16T12:35:35.272Z,34.9
2018-06-16T12:36:37.223Z,35.2
2018-06-16T12:37:38.994Z,33.9
2018-06-16T12:38:40.930Z,35.1
2018-06-16T12:39:42.889Z,33.8
2018-06-16T12:40:44.569Z,34.8
2018-06-16T12:41:46.461Z,34.7
2018-06-16T12:42:48.152Z,34.3
2018-06-16T12:43:50.070Z,34.3
2018-06-16T12:44:51.843Z,35.3
2018-06-16T12:45:53.586Z,34.1
2018-06-16T12:46:55.380Z,35.6
2018-06-16T12:47:57.676Z,35.8
2018-06-16T12:48:59.798Z,34.2
2018-06-16T12:50:01.643Z,35.6
2018-06-16T12:51:03.379Z,35.8
2018-06-16T12:52:05.409Z,34.7
2018-06-16T12:53:07.107Z,35.8
2018-06-16T12:54:08.884Z,36.6
2018-06-16T12:55:10.897Z,36.9
2018-06-16T12:56:12.886Z,34.5
2018-06-16T12:57:14.663Z,34.9
2018-06-16T12:58:16.281Z,34.0
2018-06-16T12:59:17.947Z,33.8
2018-06-16T13:00:20.038Z,34.5
2018-06-16T13:01:21.660Z,31.8
2018-06-16T13:02:23.449Z,32.3
2018-06-16T13:03:25.205Z,31.9
2018-06-16T13:04:27.069Z,31.6
2018-06-16T13:05:29.013Z,32.8
2018-06-16T13:06:30.668Z,32.5
2018-06-16T13:07:32.434Z,33.9
2018-06-16T13:08:34.171Z,32.1
2018-06-16T13:09:35.981Z,32.3
2018-06-16T13:10:37.726Z,32.5
2018-06-16T13:11:39.613Z,31.8
2018-06-16T13:12:41.364Z,32.9
2018-06-16T13:13:43.183Z,33.2
2018-06-16T13:14:44.961Z,34.7
2018-06-16T13:15:46.668Z,33.9
2018-06-16T13:16:48.475Z,35.1
2018-06-16T13:17:50.348Z,37.1
2018-06-16T13:18:52.143Z,34.2
2018-06-16T13:19:53.848Z,35.6
2018-06-16T13:20:55.682Z,36.1
2018-06-16T13:21:57.386Z,35.8
2018-06-16T13:22:59.080Z,35.7
2018-06-16T13:24:00.804Z,35.5
2018-06-16T13:25:02.585Z,35.8
2018-06-16T13:26:04.280Z,36.6
2018-06-16T13:27:06.198Z,37.5
2018-06-16T13:28:07.988Z,35.8
2018-06-16T13:29:09.908Z,37.0
2018-06-16T13:30:11.565Z,35.3
2018-06-16T13:31:13.190Z,35.2
2018-06-16T13:32:14.926Z,34.2
2018-06-16T13:33:16.628Z,34.1
2018-06-16T13:34:18.448Z,34.3
2018-06-16T13:35:20.207Z,31.1
2018-06-16T13:36:22.060Z,32.3
2018-06-16T13:37:23.810Z,31.1
2018-06-16T13:38:25.612Z,32.7
2018-06-16T13:39:27.312Z,30.6
2018-06-16T13:40:29.179Z,30.6
2018-06-16T13:41:31.316Z,31.6
2018-06-16T13:42:33.076Z,33.1
2018-06-16T13:43:34.813Z,33.5